Time;durP1;ratioP1;P1;durP2;ratioP2;P2;SDS_P1;SDS_P2;PMS_P1;PMS_P2;Temp;Humidity;BMP_temperature;BMP_pressure;BME280_temperature;BME280_humidity;BME280_pressure;Samples;Min_cycle;Max_cycle;Signal;HPM_P1;HPM_P2
2023/08/18 00:01:38;;;;;;;13.85;5.95;;;;;;;;;;6271809;28;20068;-77
2023/08/18 00:04:39;;;;;;;7.13;5.15;;;;;;;;;;6287134;28;20040;-79
2023/08/18 00:07:41;;;;;;;6.05;5.03;;;;;;;;;;6249354;28;20443;-79
2023/08/18 00:10:43;;;;;;;9.00;5.43;;;;;;;;;;6258789;28;20130;-78
2023/08/18 00:13:45;;;;;;;8.00;5.60;;;;;;;;;;6262994;28;20076;-79
2023/08/18 00:16:46;;;;;;;5.95;4.97;;;;;;;;;;6262806;28;20566;-78
2023/08/18 00:19:48;;;;;;;7.90;5.40;;;;;;;;;;6261892;28;20071;-77
2023/08/18 00:22:50;;;;;;;7.25;5.15;;;;;;;;;;6262394;28;20041;-76
2023/08/18 00:25:51;;;;;;;7.13;5.22;;;;;;;;;;6243011;28;20084;-78
2023/08/18 00:28:53;;;;;;;6.05;5.30;;;;;;;;;;6264077;28;20090;-79
2023/08/18 00:31:54;;;;;;;8.02;5.53;;;;;;;;;;6245401;28;20048;-78
2023/08/18 00:34:56;;;;;;;6.05;4.93;;;;;;;;;;6261831;28;20049;-79
2023/08/18 00:37:58;;;;;;;6.82;5.30;;;;;;;;;;6243729;28;20045;-79
2023/08/18 00:40:59;;;;;;;6.88;5.28;;;;;;;;;;6262441;28;20044;-78
2023/08/18 00:44:02;;;;;;;7.07;5.18;;;;;;;;;;6255438;28;20466;-77
2023/08/18 00:47:04;;;;;;;6.82;5.03;;;;;;;;;;6263234;28;20053;-78
2023/08/18 00:50:06;;;;;;;8.50;5.32;;;;;;;;;;6244126;28;20049;-79
2023/08/18 00:53:08;;;;;;;7.03;4.72;;;;;;;;;;6248233;28;20068;-77
2023/08/18 00:56:12;;;;;;;6.70;4.82;;;;;;;;;;6252137;28;20126;-79
2023/08/18 00:59:14;;;;;;;;;;;;;;;;;;6269626;28;20107;-78
2023/08/18 01:02:17;;;;;;;4.93;4.43;;;;;;;;;;6284556;28;19932;-78
2023/08/18 01:05:19;;;;;;;5.18;4.47;;;;;;;;;;6279920;28;20045;-78
2023/08/18 01:08:20;;;;;;;10.00;5.35;;;;;;;;;;6294683;28;20045;-78
2023/08/18 01:11:48;;;;;;;5.90;5.13;;;;;;;;;;6294926;28;20175;-78
2023/08/18 01:14:53;;;;;;;12.40;5.20;;;;;;;;;;6295788;28;20099;-78
2023/08/18 01:17:57;;;;;;;6.20;5.30;;;;;;;;;;6295301;28;20056;-78
2023/08/18 01:21:02;;;;;;;9.68;5.70;;;;;;;;;;6296425;28;20049;-79
2023/08/18 01:24:04;;;;;;;7.05;5.38;;;;;;;;;;6293036;28;20052;-80
2023/08/18 01:27:07;;;;;;;8.70;5.20;;;;;;;;;;6260655;28;20119;-80
2023/08/18 01:30:09;;;;;;;10.13;6.03;;;;;;;;;;6279282;28;20588;-79
2023/08/18 01:33:32;;;;;;;8.65;5.60;;;;;;;;;;6276566;28;20044;-79
2023/08/18 01:36:41;;;;;;;6.25;5.43;;;;;;;;;;6301778;28;20048;-77
2023/08/18 01:39:43;;;;;;;8.38;5.60;;;;;;;;;;6294278;28;20422;-78
2023/08/18 01:42:46;;;;;;;10.25;6.07;;;;;;;;;;6295459;28;20047;-80
2023/08/18 01:45:47;;;;;;;8.75;5.82;;;;;;;;;;6298606;28;20055;-80
2023/08/18 01:48:49;;;;;;;7.72;5.80;;;;;;;;;;6277620;28;20430;-78
2023/08/18 01:51:51;;;;;;;9.07;6.13;;;;;;;;;;6294445;28;20049;-79
2023/08/18 01:54:53;;;;;;;9.35;5.60;;;;;;;;;;6265243;28;20052;-79
2023/08/18 01:57:54;;;;;;;7.85;5.40;;;;;;;;;;6268257;28;20147;-78
2023/08/18 02:00:57;;;;;;;9.32;5.53;;;;;;;;;;6269803;28;20060;-78
2023/08/18 02:03:59;;;;;;;7.90;5.55;;;;;;;;;;6266037;28;20048;-78
2023/08/18 02:07:00;;;;;;;7.90;5.90;;;;;;;;;;6268111;28;20051;-78
2023/08/18 02:10:03;;;;;;;9.30;5.40;;;;;;;;;;6301851;28;20052;-78
2023/08/18 02:13:05;;;;;;;8.40;5.75;;;;;;;;;;6273084;28;20447;-78
2023/08/18 02:16:07;;;;;;;8.88;5.50;;;;;;;;;;6300422;28;20424;-78
2023/08/18 02:19:09;;;;;;;7.30;5.60;;;;;;;;;;6269818;28;20177;-76
2023/08/18 02:22:11;;;;;;;7.25;5.85;;;;;;;;;;6307339;28;20517;-78
2023/08/18 02:25:12;;;;;;;8.45;6.10;;;;;;;;;;6271876;28;20767;-78
2023/08/18 02:28:15;;;;;;;8.35;5.35;;;;;;;;;;6290304;28;20041;-78
2023/08/18 02:31:16;;;;;;;12.13;5.88;;;;;;;;;;6267741;28;20071;-77
2023/08/18 02:34:19;;;;;;;11.68;6.10;;;;;;;;;;6261312;28;20052;-77
2023/08/18 02:37:20;;;;;;;10.07;5.50;;;;;;;;;;6269467;28;20060;-77
2023/08/18 02:40:22;;;;;;;11.57;6.40;;;;;;;;;;6304226;28;20048;-79
2023/08/18 02:43:24;;;;;;;9.80;6.35;;;;;;;;;;6265561;28;20498;-79
2023/08/18 02:46:25;;;;;;;9.47;6.43;;;;;;;;;;6246369;28;20059;-80
2023/08/18 02:49:27;;;;;;;11.35;6.45;;;;;;;;;;6246715;28;20052;-79
2023/08/18 02:52:29;;;;;;;8.95;6.53;;;;;;;;;;6233649;28;20036;-79
2023/08/18 02:55:32;;;;;;;9.43;6.03;;;;;;;;;;6244492;28;20038;-80
2023/08/18 02:58:35;;;;;;;9.27;6.43;;;;;;;;;;6276948;28;20057;-80
2023/08/18 03:01:37;;;;;;;;;;;;;;;;;;6266918;28;20045;-78
2023/08/18 03:04:39;;;;;;;8.82;6.53;;;;;;;;;;6249194;28;19932;-78
2023/08/18 03:07:40;;;;;;;13.75;9.57;;;;;;;;;;6265786;28;20073;-80
2023/08/18 03:10:42;;;;;;;14.02;9.27;;;;;;;;;;6277886;28;20052;-79
2023/08/18 03:13:44;;;;;;;18.07;10.90;;;;;;;;;;6266578;28;20072;-78
2023/08/18 03:16:46;;;;;;;18.98;11.02;;;;;;;;;;6262461;28;20471;-78
2023/08/18 03:19:47;;;;;;;17.33;10.23;;;;;;;;;;6250165;28;20057;-79
2023/08/18 03:22:49;;;;;;;17.02;9.60;;;;;;;;;;6248280;28;20037;-78
2023/08/18 03:25:51;;;;;;;16.23;9.52;;;;;;;;;;6284895;28;20139;-78
2023/08/18 03:28:56;;;;;;;15.95;9.98;;;;;;;;;;6256975;28;20044;-79
2023/08/18 03:31:58;;;;;;;16.48;9.18;;;;;;;;;;6264727;28;20045;-79
2023/08/18 03:35:00;;;;;;;12.32;8.48;;;;;;;;;;6265280;28;20450;-78
2023/08/18 03:38:03;;;;;;;11.63;8.50;;;;;;;;;;6264915;28;20100;-79
2023/08/18 03:41:07;;;;;;;11.88;8.32;;;;;;;;;;6245623;28;20040;-79
2023/08/18 03:44:08;;;;;;;;;;;;;;;;;;6249130;28;20072;-79
2023/08/18 03:47:10;;;;;;;13.80;8.82;;;;;;;;;;6250554;28;19925;-79
2023/08/18 03:50:13;;;;;;;13.18;9.52;;;;;;;;;;6264841;28;20041;-78
2023/08/18 03:53:15;;;;;;;14.77;9.43;;;;;;;;;;6262334;28;20396;-78
2023/08/18 03:56:17;;;;;;;14.68;9.50;;;;;;;;;;6271181;28;20082;-80
2023/08/18 03:59:19;;;;;;;14.55;9.32;;;;;;;;;;6274533;28;20053;-80
2023/08/18 04:02:20;;;;;;;14.50;9.75;;;;;;;;;;6288593;28;20044;-79
2023/08/18 04:05:22;;;;;;;13.65;9.15;;;;;;;;;;6272751;28;20050;-79
2023/08/18 04:08:24;;;;;;;14.80;9.32;;;;;;;;;;6277176;28;20041;-80
2023/08/18 04:11:27;;;;;;;13.88;9.48;;;;;;;;;;6271287;28;20049;-80
2023/08/18 04:14:28;;;;;;;12.65;9.13;;;;;;;;;;6273193;28;20048;-79
2023/08/18 04:17:31;;;;;;;16.10;10.05;;;;;;;;;;6276662;28;20132;-78
2023/08/18 04:20:34;;;;;;;14.63;9.60;;;;;;;;;;6283830;28;20040;-80
2023/08/18 04:23:37;;;;;;;15.80;9.32;;;;;;;;;;6303709;28;20053;-79
2023/08/18 04:26:39;;;;;;;15.98;9.93;;;;;;;;;;6281763;28;20466;-79
2023/08/18 04:29:41;;;;;;;14.43;9.30;;;;;;;;;;6266236;28;20064;-79
2023/08/18 04:32:43;;;;;;;13.98;9.02;;;;;;;;;;6299892;28;20123;-80
2023/08/18 04:35:46;;;;;;;13.27;9.40;;;;;;;;;;6255769;28;20045;-78
2023/08/18 04:38:48;;;;;;;14.85;9.00;;;;;;;;;;6235852;28;20040;-78
2023/08/18 04:41:57;;;;;;;15.35;9.13;;;;;;;;;;6293953;28;20049;-79
2023/08/18 04:45:04;;;;;;;16.42;9.13;;;;;;;;;;6261246;28;22111;-80
2023/08/18 04:48:06;;;;;;;13.23;9.07;;;;;;;;;;6277382;28;20099;-79
2023/08/18 04:51:08;;;;;;;12.20;8.53;;;;;;;;;;6275790;28;20042;-79
2023/08/18 04:54:11;;;;;;;14.35;8.82;;;;;;;;;;6260337;28;20428;-80
2023/08/18 04:57:13;;;;;;;12.57;9.10;;;;;;;;;;6244329;28;20049;-78
2023/08/18 05:00:15;;;;;;;13.38;8.23;;;;;;;;;;6259547;28;20048;-79
2023/08/18 05:03:18;;;;;;;11.98;8.77;;;;;;;;;;6292177;28;20044;-78
2023/08/18 05:06:20;;;;;;;12.93;8.83;;;;;;;;;;6259715;28;20041;-79
2023/08/18 05:09:22;;;;;;;13.07;8.30;;;;;;;;;;6258567;28;20455;-78
2023/08/18 05:12:23;;;;;;;13.55;8.60;;;;;;;;;;6291002;28;20479;-79
2023/08/18 05:15:25;;;;;;;10.25;7.65;;;;;;;;;;6257191;28;20706;-80
2023/08/18 05:18:29;;;;;;;11.52;7.43;;;;;;;;;;6258697;28;20036;-79
2023/08/18 05:21:30;;;;;;;14.18;8.93;;;;;;;;;;6260397;28;20049;-80
2023/08/18 05:24:32;;;;;;;12.73;8.45;;;;;;;;;;6255443;28;20797;-77
2023/08/18 05:27:34;;;;;;;14.45;9.32;;;;;;;;;;6279235;28;20055;-79
2023/08/18 05:30:36;;;;;;;13.25;9.05;;;;;;;;;;6286221;28;20597;-80
2023/08/18 05:33:38;;;;;;;13.75;8.98;;;;;;;;;;6253604;28;20040;-80
2023/08/18 05:36:39;;;;;;;14.82;9.10;;;;;;;;;;6266863;28;20067;-79
2023/08/18 05:39:41;;;;;;;15.82;9.25;;;;;;;;;;6287440;28;20048;-78
2023/08/18 05:42:43;;;;;;;15.60;10.55;;;;;;;;;;6296144;28;20044;-78
2023/08/18 05:45:46;;;;;;;15.00;9.68;;;;;;;;;;6287364;28;20491;-80
2023/08/18 05:48:48;;;;;;;16.67;10.85;;;;;;;;;;6249894;28;20044;-79
2023/08/18 05:51:49;;;;;;;16.48;10.90;;;;;;;;;;6288429;28;20456;-78
2023/08/18 05:54:51;;;;;;;18.40;11.60;;;;;;;;;;6289913;28;20278;-79
2023/08/18 05:57:53;;;;;;;17.63;11.63;;;;;;;;;;6262385;28;20037;-79
2023/08/18 06:00:55;;;;;;;16.45;11.32;;;;;;;;;;6243628;28;20037;-77
2023/08/18 06:03:56;;;;;;;16.38;11.02;;;;;;;;;;6258788;28;20056;-78
2023/08/18 06:06:59;;;;;;;15.60;10.15;;;;;;;;;;6277530;28;20049;-77
2023/08/18 06:10:02;;;;;;;15.82;10.15;;;;;;;;;;6259848;28;20060;-77
2023/08/18 06:13:04;;;;;;;15.40;10.40;;;;;;;;;;6264619;28;20049;-78
2023/08/18 06:16:05;;;;;;;15.57;10.30;;;;;;;;;;6257993;28;20111;-78
2023/08/18 06:19:08;;;;;;;15.43;9.75;;;;;;;;;;6258872;28;20037;-77
2023/08/18 06:22:10;;;;;;;13.82;8.82;;;;;;;;;;6254996;28;20051;-76
2023/08/18 06:25:12;;;;;;;13.33;8.93;;;;;;;;;;6256433;28;20190;-76
2023/08/18 06:28:14;;;;;;;12.07;8.73;;;;;;;;;;6255690;28;20418;-76
2023/08/18 06:31:22;;;;;;;14.60;9.82;;;;;;;;;;6258696;28;20250;-76
2023/08/18 06:34:24;;;;;;;11.95;8.88;;;;;;;;;;6256413;28;20056;-77
2023/08/18 06:37:26;;;;;;;12.25;8.30;;;;;;;;;;6243416;28;20140;-77
2023/08/18 06:40:28;;;;;;;12.82;7.82;;;;;;;;;;6257783;28;20068;-76
2023/08/18 06:43:29;;;;;;;11.40;8.48;;;;;;;;;;6275952;28;20068;-77
2023/08/18 06:46:31;;;;;;;11.50;8.45;;;;;;;;;;6260592;28;20118;-78
2023/08/18 06:49:32;;;;;;;10.63;8.05;;;;;;;;;;6258514;28;20049;-77
2023/08/18 06:52:34;;;;;;;11.65;8.20;;;;;;;;;;6248685;28;20044;-78
2023/08/18 06:55:36;;;;;;;13.02;9.02;;;;;;;;;;6268382;28;20074;-77
2023/08/18 06:58:58;;;;;;;10.68;7.82;;;;;;;;;;6262007;28;20511;-79
2023/08/18 07:01:59;;;;;;;12.37;7.93;;;;;;;;;;6255416;28;20056;-79
2023/08/18 07:05:03;;;;;;;10.57;7.95;;;;;;;;;;6262224;28;20052;-78
2023/08/18 07:08:05;;;;;;;12.52;7.53;;;;;;;;;;6257023;28;20082;-76
2023/08/18 07:11:06;;;;;;;9.38;6.95;;;;;;;;;;6256736;28;20102;-78
2023/08/18 07:14:08;;;;;;;10.32;8.05;;;;;;;;;;6241123;28;20041;-77
2023/08/18 07:17:10;;;;;;;9.63;7.53;;;;;;;;;;6259834;28;20051;-77
2023/08/18 07:20:12;;;;;;;10.55;6.72;;;;;;;;;;6247992;28;20032;-77
2023/08/18 07:23:14;;;;;;;9.48;7.00;;;;;;;;;;6280852;28;20056;-78
2023/08/18 07:26:16;;;;;;;10.13;7.18;;;;;;;;;;6295529;28;20044;-78
2023/08/18 07:29:18;;;;;;;8.23;6.65;;;;;;;;;;6288209;28;20048;-77
2023/08/18 07:32:19;;;;;;;9.90;6.68;;;;;;;;;;6305276;28;20063;-77
2023/08/18 07:35:22;;;;;;;;;;;;;;;;;;6305044;28;20127;-76
2023/08/18 07:38:24;;;;;;;8.38;6.22;;;;;;;;;;6305375;28;19995;-78
2023/08/18 07:41:26;;;;;;;8.03;6.47;;;;;;;;;;6306120;28;20045;-76
2023/08/18 07:44:28;;;;;;;7.65;6.57;;;;;;;;;;6308757;28;20451;-77
2023/08/18 07:47:29;;;;;;;8.68;6.43;;;;;;;;;;6303391;28;20054;-78
2023/08/18 07:50:32;;;;;;;8.27;6.75;;;;;;;;;;6283065;28;20040;-78
2023/08/18 07:53:34;;;;;;;;;;;;;;;;;;6306880;28;20059;-77
2023/08/18 07:56:35;;;;;;;6.47;5.70;;;;;;;;;;6311723;28;19945;-77
2023/08/18 07:59:37;;;;;;;8.20;5.85;;;;;;;;;;6279710;28;20266;-77
2023/08/18 08:02:38;;;;;;;8.48;5.75;;;;;;;;;;6313399;28;20040;-78
2023/08/18 08:05:41;;;;;;;13.25;10.38;;;;;;;;;;6304322;28;20127;-78
2023/08/18 08:08:42;;;;;;;7.70;6.20;;;;;;;;;;6267318;28;20079;-77
2023/08/18 08:11:44;;;;;;;8.75;6.07;;;;;;;;;;6270609;28;20053;-78
2023/08/18 08:14:46;;;;;;;8.60;6.30;;;;;;;;;;6286100;28;20049;-77
2023/08/18 08:17:47;;;;;;;7.18;5.88;;;;;;;;;;6283829;28;20093;-76
2023/08/18 08:20:49;;;;;;;7.07;6.07;;;;;;;;;;6282107;28;20044;-77
2023/08/18 08:23:51;;;;;;;7.38;5.75;;;;;;;;;;6279196;28;20048;-76
2023/08/18 08:26:53;;;;;;;7.25;6.10;;;;;;;;;;6260385;28;20516;-76
2023/08/18 08:29:57;;;;;;;7.10;6.30;;;;;;;;;;6281413;28;20102;-76
2023/08/18 08:33:03;;;;;;;7.80;6.35;;;;;;;;;;6264272;28;20047;-77
2023/08/18 08:36:06;;;;;;;8.80;5.72;;;;;;;;;;6279266;28;20049;-78
2023/08/18 08:39:09;;;;;;;6.50;5.77;;;;;;;;;;6268066;28;20048;-78
2023/08/18 08:42:10;;;;;;;6.55;5.95;;;;;;;;;;6283209;28;20056;-79
2023/08/18 08:45:12;;;;;;;9.35;5.82;;;;;;;;;;6281471;28;20048;-78
2023/08/18 08:48:18;;;;;;;6.07;5.47;;;;;;;;;;6300411;28;20044;-78
2023/08/18 08:51:24;;;;;;;7.50;5.95;;;;;;;;;;6267486;28;20066;-79
2023/08/18 08:54:28;;;;;;;6.68;5.45;;;;;;;;;;6274976;28;20135;-76
2023/08/18 08:57:31;;;;;;;5.93;5.20;;;;;;;;;;6266425;28;20402;-75
2023/08/18 09:00:32;;;;;;;5.75;4.80;;;;;;;;;;6275366;28;20036;-76
2023/08/18 09:03:35;;;;;;;6.37;5.03;;;;;;;;;;6269488;28;20041;-77
2023/08/18 09:06:37;;;;;;;7.55;5.53;;;;;;;;;;6277410;28;20359;-76
2023/08/18 09:09:44;;;;;;;6.70;5.28;;;;;;;;;;6278897;28;20055;-77
2023/08/18 09:12:46;;;;;;;5.70;5.20;;;;;;;;;;6284347;28;20044;-79
2023/08/18 09:15:48;;;;;;;5.60;4.85;;;;;;;;;;6276897;28;20048;-77
2023/08/18 09:18:51;;;;;;;26.65;19.65;;;;;;;;;;6297861;28;20160;-77
2023/08/18 09:21:58;;;;;;;7.20;5.20;;;;;;;;;;6291145;28;20110;-75
2023/08/18 09:25:00;;;;;;;6.40;5.03;;;;;;;;;;6253977;28;20498;-75
2023/08/18 09:28:06;;;;;;;5.57;5.07;;;;;;;;;;6294575;28;20059;-75
2023/08/18 09:31:16;;;;;;;6.18;4.80;;;;;;;;;;6283776;28;20139;-74
2023/08/18 09:34:21;;;;;;;8.07;5.47;;;;;;;;;;6281672;28;20044;-76
2023/08/18 09:37:30;;;;;;;7.05;5.15;;;;;;;;;;6282318;28;20431;-76
2023/08/18 09:40:32;;;;;;;5.55;5.05;;;;;;;;;;6269888;28;20155;-76
2023/08/18 09:43:35;;;;;;;5.53;4.93;;;;;;;;;;6240414;28;20576;-74
2023/08/18 09:46:37;;;;;;;;;;;;;;;;;;6252389;28;20507;-76
2023/08/18 09:49:39;;;;;;;6.68;4.95;;;;;;;;;;6256931;28;19921;-77
2023/08/18 09:52:41;;;;;;;7.30;5.03;;;;;;;;;;6251505;28;20135;-77
2023/08/18 09:55:46;;;;;;;5.35;4.72;;;;;;;;;;6251802;28;20142;-75
2023/08/18 09:58:59;;;;;;;5.13;4.63;;;;;;;;;;6257253;28;20064;-76
2023/08/18 10:02:03;;;;;;;6.60;5.28;;;;;;;;;;6252108;28;20102;-76
2023/08/18 10:05:05;;;;;;;16.35;13.23;;;;;;;;;;6262936;28;20507;-77
2023/08/18 10:08:07;;;;;;;4.97;4.57;;;;;;;;;;6256898;28;20041;-77
2023/08/18 10:11:10;;;;;;;5.75;4.85;;;;;;;;;;6257077;28;20045;-77
2023/08/18 10:14:13;;;;;;;5.93;5.13;;;;;;;;;;6262298;28;20068;-77
2023/08/18 10:17:15;;;;;;;;;;;;;;;;;;6262544;28;20057;-78
2023/08/18 10:20:24;;;;;;;7.13;4.93;;;;;;;;;;6259775;28;19920;-77
2023/08/18 10:23:29;;;;;;;5.50;4.90;;;;;;;;;;6257289;28;20045;-76
2023/08/18 10:26:34;;;;;;;5.53;5.03;;;;;;;;;;6264267;28;20049;-78
2023/08/18 10:29:36;;;;;;;5.30;4.80;;;;;;;;;;6259574;28;20052;-77
2023/08/18 10:32:38;;;;;;;6.80;5.45;;;;;;;;;;6275587;28;20411;-77
2023/08/18 10:35:41;;;;;;;5.40;4.80;;;;;;;;;;6254356;28;20045;-76
2023/08/18 10:38:43;;;;;;;5.10;4.68;;;;;;;;;;6249695;28;20072;-77
2023/08/18 10:42:03;;;;;;;5.78;4.75;;;;;;;;;;6270428;28;20049;-78
2023/08/18 10:45:22;;;;;;;5.03;4.57;;;;;;;;;;6263336;28;20585;-78
2023/08/18 10:48:29;;;;;;;7.00;4.75;;;;;;;;;;6231804;28;20521;-77
2023/08/18 10:51:31;;;;;;;6.80;4.88;;;;;;;;;;6252251;28;20070;-77
2023/08/18 10:54:33;;;;;;;6.40;4.32;;;;;;;;;;6256786;28;20045;-78
2023/08/18 10:57:37;;;;;;;5.18;4.38;;;;;;;;;;6287892;28;20122;-77
2023/08/18 11:00:39;;;;;;;4.93;4.43;;;;;;;;;;6258273;28;20060;-78
2023/08/18 11:03:41;;;;;;;5.50;4.88;;;;;;;;;;6263251;28;20057;-78
2023/08/18 11:06:42;;;;;;;6.57;4.53;;;;;;;;;;6263187;28;20044;-78
2023/08/18 11:09:45;;;;;;;6.65;4.50;;;;;;;;;;6282274;28;20071;-78
2023/08/18 11:12:47;;;;;;;;;;;;;;;;;;6285747;28;20037;-79
2023/08/18 11:15:50;;;;;;;7.43;4.68;;;;;;;;;;6287521;28;19924;-79
2023/08/18 11:18:53;;;;;;;5.00;4.57;;;;;;;;;;6286008;28;20095;-79
2023/08/18 11:21:57;;;;;;;5.53;4.43;;;;;;;;;;6265256;28;20040;-79
2023/08/18 11:24:58;;;;;;;6.25;4.20;;;;;;;;;;6284508;28;20052;-77
2023/08/18 11:28:00;;;;;;;4.55;4.15;;;;;;;;;;6288746;28;20039;-80
2023/08/18 11:31:05;;;;;;;6.45;4.80;;;;;;;;;;6285442;28;20052;-80
2023/08/18 11:34:07;;;;;;;5.30;4.18;;;;;;;;;;6281159;28;20127;-79
2023/08/18 11:37:11;;;;;;;7.10;4.22;;;;;;;;;;6282845;28;20549;-78
2023/08/18 11:40:17;;;;;;;4.32;3.92;;;;;;;;;;6279019;28;20062;-79
2023/08/18 11:43:21;;;;;;;4.80;4.38;;;;;;;;;;6257148;28;20182;-79
2023/08/18 11:46:23;;;;;;;5.32;4.00;;;;;;;;;;6296669;28;20091;-78
2023/08/18 11:49:28;;;;;;;5.25;4.70;;;;;;;;;;6301913;28;20170;-79
2023/08/18 11:52:47;;;;;;;5.95;4.40;;;;;;;;;;6267019;28;20044;-80
2023/08/18 11:55:49;;;;;;;6.43;4.20;;;;;;;;;;6281269;28;20041;-79
2023/08/18 11:58:51;;;;;;;6.88;4.20;;;;;;;;;;6262386;28;20040;-79
2023/08/18 12:01:58;;;;;;;4.03;3.63;;;;;;;;;;6290680;28;20579;-80
2023/08/18 12:05:05;;;;;;;5.90;3.78;;;;;;;;;;6284460;28;20451;-79
2023/08/18 12:08:09;;;;;;;4.20;3.83;;;;;;;;;;6282513;28;20606;-80
2023/08/18 12:11:11;;;;;;;5.25;3.90;;;;;;;;;;6282778;28;20055;-78
2023/08/18 12:14:13;;;;;;;6.05;3.80;;;;;;;;;;6265725;28;20470;-78
2023/08/18 12:17:15;;;;;;;4.65;3.53;;;;;;;;;;6282507;28;20125;-79
2023/08/18 12:20:20;;;;;;;4.00;3.50;;;;;;;;;;6249195;28;20177;-82
2023/08/18 12:23:21;;;;;;;4.13;3.70;;;;;;;;;;6266566;28;20037;-78
2023/08/18 12:26:23;;;;;;;4.57;3.60;;;;;;;;;;6286658;28;20056;-79
2023/08/18 12:29:28;;;;;;;3.80;3.50;;;;;;;;;;6283781;28;20101;-79
2023/08/18 12:32:30;;;;;;;4.18;3.55;;;;;;;;;;6280830;28;20456;-80
2023/08/18 12:35:33;;;;;;;5.85;3.72;;;;;;;;;;6280237;28;20071;-79
2023/08/18 12:38:34;;;;;;;3.90;3.10;;;;;;;;;;6282516;28;20660;-79
2023/08/18 12:41:36;;;;;;;4.22;3.22;;;;;;;;;;6281701;28;20056;-80
2023/08/18 12:44:38;;;;;;;4.22;3.00;;;;;;;;;;6259039;28;20166;-80
2023/08/18 12:47:40;;;;;;;3.72;3.20;;;;;;;;;;6275585;28;20036;-79
2023/08/18 12:50:42;;;;;;;;;;;;;;;;;;6266592;28;20048;-79
2023/08/18 12:53:45;;;;;;;4.75;2.97;;;;;;;;;;6281923;28;20417;-78
2023/08/18 12:56:46;;;;;;;5.85;3.30;;;;;;;;;;6265352;28;20044;-79
2023/08/18 12:59:48;;;;;;;4.38;3.25;;;;;;;;;;6257901;28;20275;-82
2023/08/18 13:02:49;;;;;;;4.30;3.10;;;;;;;;;;6259786;28;20056;-80
2023/08/18 13:05:52;;;;;;;3.03;2.72;;;;;;;;;;6259433;28;20565;-81
2023/08/18 13:08:54;;;;;;;5.00;2.92;;;;;;;;;;6254221;28;20049;-80
2023/08/18 13:11:56;;;;;;;5.18;2.97;;;;;;;;;;6256861;28;20045;-83
2023/08/18 13:14:58;;;;;;;3.65;2.72;;;;;;;;;;6242272;28;20087;-79
2023/08/18 13:17:59;;;;;;;2.83;2.55;;;;;;;;;;6258212;28;20098;-82
2023/08/18 13:21:02;;;;;;;7.40;3.42;;;;;;;;;;6278695;28;20068;-81
2023/08/18 13:24:04;;;;;;;4.30;3.00;;;;;;;;;;6280086;28;20662;-80
2023/08/18 13:27:07;;;;;;;3.17;2.80;;;;;;;;;;6260623;28;20434;-80
2023/08/18 13:30:10;;;;;;;4.65;3.03;;;;;;;;;;6268031;28;20043;-82
2023/08/18 13:33:12;;;;;;;5.22;2.97;;;;;;;;;;6255455;28;20040;-83
2023/08/18 13:36:14;;;;;;;5.78;3.22;;;;;;;;;;6258824;28;20051;-84
2023/08/18 13:39:18;;;;;;;3.67;2.97;;;;;;;;;;6244974;28;20045;-81
2023/08/18 13:42:21;;;;;;;4.40;2.90;;;;;;;;;;6261114;28;20045;-81
2023/08/18 13:45:23;;;;;;;5.68;3.17;;;;;;;;;;6263164;28;20046;-79
2023/08/18 13:48:25;;;;;;;3.90;3.13;;;;;;;;;;6243911;28;20088;-81
2023/08/18 13:51:29;;;;;;;6.50;2.95;;;;;;;;;;6259754;28;20041;-82
2023/08/18 13:54:30;;;;;;;3.85;3.20;;;;;;;;;;6244039;28;20053;-81
2023/08/18 13:57:32;;;;;;;3.60;2.75;;;;;;;;;;6259211;28;20044;-82
2023/08/18 14:00:34;;;;;;;3.25;2.90;;;;;;;;;;6258398;28;20171;-83
2023/08/18 14:03:35;;;;;;;4.95;3.00;;;;;;;;;;6258709;28;20037;-82
2023/08/18 14:06:37;;;;;;;;;;;;;;;;;;6259224;28;20045;-82
2023/08/18 14:09:39;;;;;;;3.83;3.20;;;;;;;;;;6258944;28;19971;-81
2023/08/18 14:12:48;;;;;;;2.78;2.58;;;;;;;;;;6266794;28;20053;-81
2023/08/18 14:15:49;;;;;;;3.95;2.70;;;;;;;;;;6268070;28;20045;-80
2023/08/18 14:18:51;;;;;;;;;;;;;;;;;;6268825;28;20048;-82
2023/08/18 14:21:54;;;;;;;5.43;3.03;;;;;;;;;;6296141;28;19990;-82
2023/08/18 14:24:55;;;;;;;3.65;2.55;;;;;;;;;;6263011;28;20048;-81
2023/08/18 14:27:57;;;;;;;3.45;2.78;;;;;;;;;;6274924;28;20060;-82
2023/08/18 14:30:58;;;;;;;4.55;2.80;;;;;;;;;;6261809;28;20167;-81
2023/08/18 14:34:00;;;;;;;3.47;2.97;;;;;;;;;;6266812;28;20060;-82
2023/08/18 14:37:02;;;;;;;3.33;3.03;;;;;;;;;;6265835;28;20040;-81
2023/08/18 14:40:09;;;;;;;4.65;3.00;;;;;;;;;;6263150;28;20053;-82
2023/08/18 14:43:11;;;;;;;6.68;2.85;;;;;;;;;;6258173;28;20068;-82
2023/08/18 14:46:18;;;;;;;4.10;2.90;;;;;;;;;;6296788;28;20461;-79
2023/08/18 14:49:20;;;;;;;;;;;;;;;;;;6262675;28;20778;-82
2023/08/18 14:52:21;;;;;;;4.05;2.92;;;;;;;;;;6267209;28;19921;-82
2023/08/18 14:55:23;;;;;;;4.30;3.20;;;;;;;;;;6255231;28;20042;-82
2023/08/18 14:58:26;;;;;;;5.60;3.28;;;;;;;;;;6296716;28;20045;-81
2023/08/18 15:01:33;;;;;;;3.50;2.50;;;;;;;;;;6257723;28;20075;-82
2023/08/18 15:04:35;;;;;;;7.13;3.08;;;;;;;;;;6263168;28;20120;-81
2023/08/18 15:07:38;;;;;;;5.50;3.00;;;;;;;;;;6262513;28;20060;-83
2023/08/18 15:10:40;;;;;;;4.90;3.05;;;;;;;;;;6262346;28;20041;-81
2023/08/18 15:13:43;;;;;;;3.90;3.10;;;;;;;;;;6262662;28;20068;-83
2023/08/18 15:16:45;;;;;;;4.15;3.25;;;;;;;;;;6263421;28;20106;-81
2023/08/18 15:19:49;;;;;;;4.65;3.00;;;;;;;;;;6263046;28;20044;-81
2023/08/18 15:22:51;;;;;;;5.18;3.05;;;;;;;;;;6259395;28;20049;-82
2023/08/18 15:25:53;;;;;;;3.78;3.00;;;;;;;;;;6260226;28;20110;-82
2023/08/18 15:28:54;;;;;;;4.95;2.88;;;;;;;;;;6263941;28;20102;-82
2023/08/18 15:31:57;;;;;;;6.32;3.00;;;;;;;;;;6265537;28;20052;-80
2023/08/18 15:34:59;;;;;;;4.65;2.80;;;;;;;;;;6246600;28;20053;-82
2023/08/18 15:38:01;;;;;;;4.47;2.92;;;;;;;;;;6263827;28;20053;-81
2023/08/18 15:41:04;;;;;;;3.42;3.13;;;;;;;;;;6264264;28;20045;-81
2023/08/18 15:44:06;;;;;;;5.93;2.97;;;;;;;;;;6261215;28;20045;-82
2023/08/18 15:47:08;;;;;;;5.78;3.17;;;;;;;;;;6261629;28;20057;-83
2023/08/18 15:50:10;;;;;;;4.90;3.17;;;;;;;;;;6263227;28;20040;-83
2023/08/18 15:53:12;;;;;;;4.88;2.72;;;;;;;;;;6267868;28;20049;-83
2023/08/18 15:56:13;;;;;;;6.38;3.42;;;;;;;;;;6277431;28;20049;-83
2023/08/18 15:59:15;;;;;;;3.35;3.05;;;;;;;;;;6284325;28;20077;-84
2023/08/18 16:02:17;;;;;;;3.92;3.03;;;;;;;;;;6264720;28;20064;-82
2023/08/18 16:05:18;;;;;;;8.70;7.80;;;;;;;;;;6258672;28;20846;-81
2023/08/18 16:08:20;;;;;;;8.45;7.55;;;;;;;;;;6257418;28;20041;-81
2023/08/18 16:11:22;;;;;;;3.72;3.25;;;;;;;;;;6264669;28;20469;-81
2023/08/18 16:14:24;;;;;;;4.35;2.90;;;;;;;;;;6266362;28;20049;-81
2023/08/18 16:17:29;;;;;;;4.60;2.90;;;;;;;;;;6295361;28;20041;-81
2023/08/18 16:20:31;;;;;;;6.43;3.33;;;;;;;;;;6262724;28;20037;-81
2023/08/18 16:23:33;;;;;;;5.65;3.08;;;;;;;;;;6264209;28;20044;-81
2023/08/18 16:26:34;;;;;;;5.10;3.58;;;;;;;;;;6264248;28;20044;-82
2023/08/18 16:29:36;;;;;;;4.22;3.20;;;;;;;;;;6258816;28;20052;-82
2023/08/18 16:32:38;;;;;;;6.38;3.33;;;;;;;;;;6276033;28;20059;-80
2023/08/18 16:35:42;;;;;;;5.60;3.13;;;;;;;;;;6261289;28;20051;-80
2023/08/18 16:38:44;;;;;;;5.75;2.80;;;;;;;;;;6261436;28;20048;-79
2023/08/18 16:41:46;;;;;;;5.95;3.20;;;;;;;;;;6260137;28;20098;-79
2023/08/18 16:44:48;;;;;;;5.30;3.05;;;;;;;;;;6262820;28;20045;-80
2023/08/18 16:47:50;;;;;;;4.05;2.97;;;;;;;;;;6265531;28;20120;-79
2023/08/18 16:50:51;;;;;;;5.82;3.50;;;;;;;;;;6263357;28;20041;-79
2023/08/18 16:53:53;;;;;;;4.88;3.25;;;;;;;;;;6259414;28;20044;-80
2023/08/18 16:56:57;;;;;;;7.50;3.17;;;;;;;;;;6264914;28;20065;-80
2023/08/18 16:59:59;;;;;;;4.97;3.22;;;;;;;;;;6259314;28;20132;-80
2023/08/18 17:03:01;;;;;;;5.18;3.58;;;;;;;;;;6245946;28;20462;-79
2023/08/18 17:06:03;;;;;;;4.97;3.35;;;;;;;;;;6261015;28;20072;-79
2023/08/18 17:09:04;;;;;;;;;;;;;;;;;;6260954;28;20049;-79
2023/08/18 17:12:07;;;;;;;6.13;3.38;;;;;;;;;;6260829;28;19924;-79
2023/08/18 17:15:09;;;;;;;6.60;3.10;;;;;;;;;;6261299;28;20499;-79
2023/08/18 17:18:11;;;;;;;6.18;3.40;;;;;;;;;;6259275;28;20052;-79
2023/08/18 17:21:15;;;;;;;5.10;3.40;;;;;;;;;;6238608;28;20059;-79
2023/08/18 17:24:17;;;;;;;6.00;4.25;;;;;;;;;;6240440;28;20044;-79
2023/08/18 17:27:19;;;;;;;7.45;5.60;;;;;;;;;;6260018;28;20099;-79
2023/08/18 17:30:20;;;;;;;8.38;5.85;;;;;;;;;;6259488;28;20103;-79
2023/08/18 17:33:22;;;;;;;7.15;5.20;;;;;;;;;;6258476;28;20051;-79
2023/08/18 17:36:24;;;;;;;6.43;3.80;;;;;;;;;;6258756;28;20076;-80
2023/08/18 17:39:26;;;;;;;5.72;4.22;;;;;;;;;;6260767;28;20045;-79
2023/08/18 17:42:28;;;;;;;4.53;3.60;;;;;;;;;;6261685;28;20068;-79
2023/08/18 17:45:29;;;;;;;5.57;3.80;;;;;;;;;;6262482;28;20051;-80
2023/08/18 17:48:31;;;;;;;4.70;3.20;;;;;;;;;;6263410;28;20055;-79
2023/08/18 17:51:34;;;;;;;5.50;3.50;;;;;;;;;;6261852;28;20045;-78
2023/08/18 17:54:36;;;;;;;;;;;;;;;;;;6262325;28;20056;-80
2023/08/18 17:57:37;;;;;;;8.10;4.10;;;;;;;;;;6263551;28;19956;-79
2023/08/18 18:00:40;;;;;;;5.70;3.40;;;;;;;;;;6300478;28;20052;-79
2023/08/18 18:03:42;;;;;;;4.43;3.50;;;;;;;;;;6272806;28;20110;-80
2023/08/18 18:06:44;;;;;;;6.93;3.20;;;;;;;;;;6252258;28;20044;-79
2023/08/18 18:09:45;;;;;;;6.40;3.85;;;;;;;;;;6261837;28;20049;-81
2023/08/18 18:12:49;;;;;;;8.38;3.78;;;;;;;;;;6257635;28;20063;-79
2023/08/18 18:15:51;;;;;;;6.40;3.55;;;;;;;;;;6275115;28;20108;-80